createdAt,value
2023-05-21T00:00:31.510Z,17.79
2023-05-21T00:02:59.464Z,17.83
2023-05-21T00:05:26.902Z,17.73
2023-05-21T00:07:55.047Z,17.72
2023-05-21T00:10:22.742Z,17.77
2023-05-21T00:12:49.972Z,17.66
2023-05-21T00:15:17.178Z,17.58
2023-05-21T00:17:46.199Z,17.59
2023-05-21T00:20:13.650Z,17.61
2023-05-21T00:22:42.509Z,17.50
2023-05-21T00:25:11.465Z,17.37
2023-05-21T00:27:38.892Z,17.29
2023-05-21T00:30:07.054Z,17.27
2023-05-21T00:32:34.738Z,17.19
2023-05-21T00:35:01.895Z,17.16
2023-05-21T00:37:34.452Z,17.14
2023-05-21T00:40:02.341Z,17.13
2023-05-21T00:42:30.784Z,17.10
2023-05-21T00:44:58.338Z,17.04
2023-05-21T00:47:29.729Z,17.10
2023-05-21T00:49:57.434Z,17.12
2023-05-21T00:52:27.070Z,17.10
2023-05-21T00:54:55.296Z,16.99
2023-05-21T00:57:25.351Z,16.90
2023-05-21T00:59:53.692Z,16.92
2023-05-21T01:02:24.354Z,16.92
2023-05-21T01:04:55.298Z,16.97
2023-05-21T01:07:23.430Z,16.90
2023-05-21T01:09:50.834Z,16.81
2023-05-21T01:12:18.932Z,16.74
2023-05-21T01:14:47.115Z,16.73
2023-05-21T01:17:15.719Z,16.67
2023-05-21T01:19:44.718Z,16.62
2023-05-21T01:22:14.356Z,16.60
2023-05-21T01:24:41.839Z,16.65
2023-05-21T01:27:10.646Z,16.70
2023-05-21T01:29:38.211Z,16.64
2023-05-21T01:32:14.532Z,16.60
2023-05-21T01:35:09.874Z,16.51
2023-05-21T01:37:46.246Z,16.50
2023-05-21T01:40:38.434Z,16.58
2023-05-21T01:43:06.686Z,16.54
2023-05-21T01:45:37.078Z,16.45
2023-05-21T01:48:06.267Z,16.36
2023-05-21T01:50:34.616Z,16.48
2023-05-21T01:53:03.841Z,16.23
2023-05-21T01:55:31.475Z,16.26
2023-05-21T01:58:01.984Z,16.19
2023-05-21T02:00:32.390Z,16.13
2023-05-21T02:03:00.043Z,16.15
2023-05-21T02:05:27.462Z,16.17
2023-05-21T02:07:55.028Z,16.24
2023-05-21T02:10:22.948Z,16.21
2023-05-21T02:12:50.260Z,16.14
2023-05-21T02:15:20.633Z,16.09
2023-05-21T02:17:48.412Z,16.05
2023-05-21T02:20:16.273Z,15.97
2023-05-21T02:22:45.588Z,16.01
2023-05-21T02:25:15.284Z,16.00
2023-05-21T02:27:43.453Z,15.93
2023-05-21T02:30:12.155Z,15.89
2023-05-21T02:32:42.861Z,15.87
2023-05-21T02:35:12.354Z,15.90
2023-05-21T02:37:40.763Z,15.89
2023-05-21T02:40:09.836Z,15.85
2023-05-21T02:42:39.768Z,15.81
2023-05-21T02:45:09.721Z,15.76
2023-05-21T02:47:38.726Z,15.79
2023-05-21T02:50:08.640Z,15.71
2023-05-21T02:52:37.195Z,15.63
2023-05-21T02:55:04.638Z,15.63
2023-05-21T02:57:31.871Z,15.74
2023-05-21T02:59:59.504Z,15.72
2023-05-21T03:02:27.242Z,15.81
2023-05-21T03:04:54.742Z,15.79
2023-05-21T03:07:22.558Z,15.89
2023-05-21T03:09:49.886Z,15.90
2023-05-21T03:12:17.303Z,15.84
2023-05-21T03:14:46.533Z,15.86
2023-05-21T03:17:15.142Z,15.84
2023-05-21T03:19:44.108Z,15.87
2023-05-21T03:22:11.746Z,15.92
2023-05-21T03:24:40.002Z,16.05
2023-05-21T03:27:07.665Z,16.28
2023-05-21T03:29:35.477Z,16.62
2023-05-21T03:32:03.322Z,16.67
2023-05-21T03:34:31.332Z,16.87
2023-05-21T03:36:59.274Z,16.71
2023-05-21T03:39:26.944Z,16.59
2023-05-21T03:41:55.111Z,16.38
2023-05-21T03:44:23.145Z,16.34
2023-05-21T03:46:50.952Z,16.50
2023-05-21T03:49:18.495Z,16.49
2023-05-21T03:51:46.254Z,16.60
2023-05-21T03:54:14.292Z,16.59
2023-05-21T03:56:41.679Z,16.45
2023-05-21T03:59:09.447Z,16.57
2023-05-21T04:01:36.849Z,16.58
2023-05-21T04:04:05.043Z,16.54
2023-05-21T04:06:32.686Z,16.67
2023-05-21T04:08:59.888Z,16.74
2023-05-21T04:11:27.361Z,16.56
2023-05-21T04:13:54.757Z,16.73
2023-05-21T04:16:22.602Z,16.77
2023-05-21T04:18:50.669Z,16.73
2023-05-21T04:21:17.905Z,16.84
2023-05-21T04:23:45.103Z,16.86
2023-05-21T04:26:16.341Z,17.04
2023-05-21T04:28:43.754Z,17.38
2023-05-21T04:31:13.115Z,17.47
2023-05-21T04:33:42.289Z,17.78
2023-05-21T04:36:12.611Z,17.70
2023-05-21T04:38:42.015Z,17.79
2023-05-21T04:41:11.009Z,17.87
2023-05-21T04:43:38.427Z,17.88
2023-05-21T04:46:06.147Z,18.04
2023-05-21T04:48:34.261Z,18.24
2023-05-21T04:51:01.736Z,18.19
2023-05-21T04:53:29.286Z,18.38
2023-05-21T04:55:59.463Z,18.32
2023-05-21T04:58:28.008Z,18.35
2023-05-21T05:00:55.967Z,18.58
2023-05-21T05:03:23.712Z,18.83
2023-05-21T05:05:51.736Z,18.82
2023-05-21T05:08:20.388Z,18.99
2023-05-21T05:10:48.042Z,19.42
2023-05-21T05:13:16.158Z,20.62
2023-05-21T05:15:43.837Z,22.57
2023-05-21T05:18:12.077Z,23.60
2023-05-21T05:20:40.835Z,24.32
2023-05-21T05:23:08.018Z,24.53
2023-05-21T05:25:35.882Z,25.98
2023-05-21T05:28:03.367Z,25.89
2023-05-21T05:30:30.672Z,26.52
2023-05-21T05:33:01.595Z,26.09
2023-05-21T05:35:28.937Z,26.12
2023-05-21T05:37:57.071Z,26.83
2023-05-21T05:40:24.894Z,27.46
2023-05-21T05:42:52.909Z,28.81
2023-05-21T05:45:20.799Z,25.93
2023-05-21T05:47:48.350Z,27.59
2023-05-21T05:50:15.861Z,27.60
2023-05-21T05:52:43.111Z,27.56
2023-05-21T05:55:12.799Z,28.04
2023-05-21T05:57:40.085Z,27.67
2023-05-21T06:00:10.653Z,27.65
2023-05-21T06:02:39.577Z,28.02
2023-05-21T06:05:10.134Z,28.43
2023-05-21T06:07:38.741Z,28.35
2023-05-21T06:10:07.206Z,27.00
2023-05-21T06:12:34.918Z,27.56
2023-05-21T06:15:02.373Z,26.85
2023-05-21T06:17:30.170Z,30.28
2023-05-21T06:19:57.786Z,28.69
2023-05-21T06:22:26.976Z,28.99
2023-05-21T06:24:55.333Z,27.59
2023-05-21T06:27:22.955Z,27.59
2023-05-21T06:29:50.355Z,27.63
2023-05-21T06:32:18.441Z,27.56
2023-05-21T06:34:46.245Z,28.58
2023-05-21T06:37:13.581Z,28.61
2023-05-21T06:39:41.037Z,28.65
2023-05-21T06:42:08.755Z,30.60
2023-05-21T06:44:39.005Z,28.17
2023-05-21T06:47:07.636Z,27.20
2023-05-21T06:49:35.729Z,29.89
2023-05-21T06:52:03.407Z,29.34
2023-05-21T06:54:30.915Z,28.26
2023-05-21T06:56:58.544Z,28.85
2023-05-21T06:59:25.719Z,29.56
2023-05-21T07:01:54.098Z,27.60
2023-05-21T07:04:21.520Z,28.12
2023-05-21T07:06:49.912Z,27.15
2023-05-21T07:09:18.387Z,28.70
2023-05-21T07:11:46.447Z,28.59
2023-05-21T07:14:15.506Z,28.06
2023-05-21T07:16:42.724Z,27.60
2023-05-21T07:19:10.638Z,27.90
2023-05-21T07:21:37.976Z,26.93
2023-05-21T07:24:06.421Z,27.15
2023-05-21T07:26:37.659Z,27.33
2023-05-21T07:29:04.935Z,27.49
2023-05-21T07:31:32.334Z,27.55
2023-05-21T07:34:00.655Z,27.74
2023-05-21T07:36:28.612Z,27.02
2023-05-21T07:38:56.119Z,26.49
2023-05-21T07:41:23.692Z,26.33
2023-05-21T07:43:51.514Z,26.12
2023-05-21T07:46:18.837Z,26.09
2023-05-21T07:48:48.472Z,26.73
2023-05-21T07:51:16.626Z,26.76
2023-05-21T07:53:44.327Z,26.56
2023-05-21T07:56:12.525Z,26.43
2023-05-21T07:58:40.766Z,25.76
2023-05-21T08:01:08.494Z,26.53
2023-05-21T08:03:36.285Z,28.88
2023-05-21T08:06:03.813Z,25.91
2023-05-21T08:08:30.996Z,26.24
2023-05-21T08:10:59.086Z,25.80
2023-05-21T08:13:26.731Z,26.04
2023-05-21T08:15:54.355Z,26.31
2023-05-21T08:18:24.050Z,26.33
2023-05-21T08:20:52.979Z,25.94
2023-05-21T08:23:20.749Z,26.18
2023-05-21T08:25:48.902Z,25.59
2023-05-21T08:28:16.307Z,25.70
2023-05-21T08:30:54.187Z,26.03
2023-05-21T08:33:29.390Z,26.03
2023-05-21T08:35:57.002Z,25.59
2023-05-21T08:38:25.087Z,26.11
2023-05-21T08:40:55.093Z,25.81
2023-05-21T08:43:22.719Z,25.82
2023-05-21T08:45:58.903Z,26.09
2023-05-21T08:48:26.525Z,26.40
2023-05-21T08:50:55.180Z,27.16
2023-05-21T08:53:29.066Z,27.58
2023-05-21T08:55:57.627Z,25.85
2023-05-21T08:58:26.328Z,26.56
2023-05-21T09:00:56.316Z,26.11
2023-05-21T09:03:26.894Z,26.32
2023-05-21T09:05:55.499Z,25.71
2023-05-21T09:08:27.923Z,25.47
2023-05-21T09:10:56.411Z,25.91
2023-05-21T09:13:25.557Z,26.18
2023-05-21T09:15:53.273Z,26.13
2023-05-21T09:18:21.665Z,26.91
2023-05-21T09:20:51.012Z,27.67
2023-05-21T09:23:19.514Z,26.64
2023-05-21T09:25:48.989Z,26.40
2023-05-21T09:28:19.435Z,27.01
2023-05-21T09:30:47.454Z,27.69
2023-05-21T09:33:26.130Z,26.38
2023-05-21T09:35:53.801Z,26.95
2023-05-21T09:38:23.768Z,27.39
2023-05-21T09:40:51.651Z,27.81
2023-05-21T09:43:21.840Z,27.85
2023-05-21T09:45:57.878Z,26.52
2023-05-21T09:48:44.700Z,27.04
2023-05-21T09:51:19.719Z,26.74
2023-05-21T09:53:54.261Z,27.05
2023-05-21T09:56:27.512Z,27.43
2023-05-21T09:59:00.648Z,27.25
2023-05-21T10:01:28.937Z,26.08
2023-05-21T10:04:00.121Z,26.20
2023-05-21T10:06:29.688Z,26.45
2023-05-21T10:08:57.602Z,25.84
2023-05-21T10:11:31.302Z,26.36
2023-05-21T10:17:30.766Z,26.11
2023-05-21T10:20:00.231Z,26.25
2023-05-21T10:22:28.131Z,26.43
2023-05-21T10:24:55.738Z,25.78
2023-05-21T10:27:23.597Z,25.87
2023-05-21T10:29:51.433Z,25.82
2023-05-21T10:32:21.259Z,25.94
2023-05-21T10:34:49.723Z,26.19
2023-05-21T10:37:37.752Z,26.62
2023-05-21T10:40:06.206Z,26.85
2023-05-21T10:42:34.753Z,26.37
2023-05-21T10:45:27.389Z,26.31
2023-05-21T10:48:21.925Z,26.59
2023-05-21T10:51:36.876Z,26.34
2023-05-21T10:54:46.999Z,26.28
2023-05-21T10:57:24.497Z,25.93
2023-05-21T10:59:58.418Z,25.82
2023-05-21T11:02:27.205Z,26.15
2023-05-21T11:04:59.653Z,26.50
2023-05-21T11:07:58.261Z,26.54
2023-05-21T11:10:35.604Z,26.32
2023-05-21T11:13:15.572Z,26.49
2023-05-21T11:15:58.740Z,26.21
2023-05-21T11:18:38.558Z,26.27
2023-05-21T11:21:17.313Z,26.21
2023-05-21T11:23:51.250Z,26.04
2023-05-21T11:26:25.450Z,26.36
2023-05-21T11:29:05.089Z,26.36
2023-05-21T11:31:40.384Z,26.61
2023-05-21T11:34:28.234Z,27.05
2023-05-21T11:37:27.911Z,26.87
2023-05-21T11:39:56.029Z,26.68
2023-05-21T11:42:28.277Z,26.56
2023-05-21T11:44:58.552Z,26.43
2023-05-21T11:47:26.958Z,26.49
2023-05-21T11:49:54.998Z,26.70
2023-05-21T11:52:22.688Z,26.74
2023-05-21T11:54:55.491Z,26.67
2023-05-21T11:57:24.232Z,26.63
2023-05-21T11:59:51.930Z,26.14
2023-05-21T12:02:21.178Z,26.20
2023-05-21T12:04:50.384Z,26.33
2023-05-21T12:07:19.948Z,26.62
2023-05-21T12:09:48.778Z,26.32
2023-05-21T12:12:25.627Z,26.34
2023-05-21T12:14:55.202Z,26.50
2023-05-21T12:17:23.529Z,26.37
2023-05-21T12:19:55.484Z,26.19
2023-05-21T12:22:24.699Z,26.33
2023-05-21T12:24:53.926Z,26.62
2023-05-21T12:27:21.995Z,26.35
2023-05-21T12:29:52.000Z,26.55
2023-05-21T12:32:21.104Z,26.59
2023-05-21T12:34:56.430Z,26.65
2023-05-21T12:37:25.897Z,27.07
2023-05-21T12:39:58.080Z,26.77
2023-05-21T12:42:27.270Z,26.63
2023-05-21T12:44:57.909Z,26.83
2023-05-21T12:47:31.106Z,27.10
2023-05-21T12:50:02.141Z,26.73
2023-05-21T12:52:31.139Z,26.86
2023-05-21T12:54:59.349Z,27.29
2023-05-21T12:57:28.425Z,27.08
2023-05-21T13:00:01.980Z,27.21
2023-05-21T13:02:34.626Z,27.27
2023-05-21T13:05:23.989Z,27.00
2023-05-21T13:07:51.832Z,27.21
2023-05-21T13:10:19.538Z,27.12
2023-05-21T13:12:50.683Z,27.28
2023-05-21T13:15:20.348Z,27.18
2023-05-21T13:17:50.071Z,27.07
2023-05-21T13:20:34.548Z,27.07
2023-05-21T13:23:04.652Z,27.11
2023-05-21T13:25:33.558Z,27.25
2023-05-21T13:28:04.729Z,27.17
2023-05-21T13:30:33.453Z,27.14
2023-05-21T13:33:01.451Z,27.24
2023-05-21T13:35:30.546Z,27.45
2023-05-21T13:37:57.910Z,27.52
2023-05-21T13:40:25.488Z,27.54
2023-05-21T13:42:53.290Z,27.53
2023-05-21T13:45:21.527Z,27.15
2023-05-21T13:47:49.381Z,27.43
2023-05-21T13:50:17.363Z,27.30
2023-05-21T13:52:45.105Z,27.37
2023-05-21T13:55:12.816Z,26.89
2023-05-21T13:57:40.806Z,27.15
2023-05-21T14:00:14.326Z,27.33
2023-05-21T14:02:43.055Z,27.54
2023-05-21T14:05:12.463Z,27.26
2023-05-21T14:07:40.211Z,27.24
2023-05-21T14:10:08.812Z,27.39
2023-05-21T14:12:36.691Z,27.40
2023-05-21T14:15:04.290Z,27.54
2023-05-21T14:17:33.527Z,27.28
2023-05-21T14:20:00.822Z,27.35
2023-05-21T14:22:28.257Z,27.15
2023-05-21T14:24:56.281Z,27.66
2023-05-21T14:27:23.554Z,27.90
2023-05-21T14:29:51.059Z,27.76
2023-05-21T14:32:19.425Z,27.04
2023-05-21T14:34:46.951Z,26.97
2023-05-21T14:37:14.157Z,26.94
2023-05-21T14:39:41.989Z,27.26
2023-05-21T14:42:09.277Z,27.19
2023-05-21T14:44:36.799Z,27.02
2023-05-21T14:47:04.724Z,27.10
2023-05-21T14:49:32.396Z,27.06
2023-05-21T14:51:59.782Z,26.96
2023-05-21T14:54:27.478Z,27.09
2023-05-21T14:56:54.918Z,27.08
2023-05-21T15:02:56.512Z,27.02
2023-05-21T15:05:25.912Z,27.15
2023-05-21T15:07:53.237Z,27.26
2023-05-21T15:10:20.603Z,27.27
2023-05-21T15:12:48.205Z,27.10
2023-05-21T15:15:17.153Z,26.75
2023-05-21T15:17:44.781Z,26.85
2023-05-21T15:20:12.558Z,26.96
2023-05-21T15:22:40.113Z,27.09
2023-05-21T15:25:08.126Z,26.98
2023-05-21T15:27:35.751Z,26.85
2023-05-21T15:30:04.131Z,27.02
2023-05-21T15:32:31.652Z,27.03
2023-05-21T15:35:04.239Z,26.96
2023-05-21T15:37:33.095Z,26.83
2023-05-21T15:40:01.077Z,26.77
2023-05-21T15:42:31.422Z,26.77
2023-05-21T15:44:59.011Z,26.71
2023-05-21T15:47:30.013Z,26.77
2023-05-21T15:49:58.964Z,26.74
2023-05-21T15:52:26.736Z,27.00
2023-05-21T15:54:54.104Z,26.97
2023-05-21T15:57:21.356Z,26.95
2023-05-21T15:59:50.474Z,26.94
2023-05-21T16:02:18.129Z,26.86
2023-05-21T16:04:45.927Z,26.72
2023-05-21T16:07:13.512Z,26.41
2023-05-21T16:09:41.085Z,26.30
2023-05-21T16:12:08.787Z,26.42
2023-05-21T16:14:36.017Z,26.49
2023-05-21T16:17:03.656Z,26.50
2023-05-21T16:19:31.970Z,26.59
2023-05-21T16:22:00.959Z,26.70
2023-05-21T16:24:28.183Z,26.55
2023-05-21T16:30:26.121Z,26.55
2023-05-21T16:32:53.949Z,26.53
2023-05-21T16:35:24.062Z,26.59
2023-05-21T16:37:51.226Z,26.26
2023-05-21T16:40:19.135Z,26.37
2023-05-21T16:42:46.292Z,26.36
2023-05-21T16:45:20.645Z,26.30
2023-05-21T16:47:49.906Z,26.30
2023-05-21T16:50:19.091Z,26.28
2023-05-21T16:52:46.410Z,26.05
2023-05-21T16:55:14.244Z,26.12
2023-05-21T16:57:41.538Z,26.27
2023-05-21T17:00:09.187Z,26.17
2023-05-21T17:06:20.044Z,25.94
2023-05-21T17:08:47.620Z,25.72
2023-05-21T17:14:45.125Z,25.77
2023-05-21T17:17:12.613Z,25.68
2023-05-21T17:19:39.863Z,25.72
2023-05-21T17:22:07.089Z,25.52
2023-05-21T17:24:34.651Z,25.44
2023-05-21T17:27:01.958Z,25.41
2023-05-21T17:29:29.235Z,25.46
2023-05-21T17:31:56.948Z,25.28
2023-05-21T17:34:29.546Z,25.22
2023-05-21T17:37:00.030Z,25.06
2023-05-21T17:39:27.705Z,25.11
2023-05-21T17:41:55.850Z,25.09
2023-05-21T17:44:25.181Z,24.92
2023-05-21T17:46:53.783Z,24.79
2023-05-21T17:49:21.483Z,24.63
2023-05-21T17:51:49.395Z,24.56
2023-05-21T17:54:17.042Z,24.55
2023-05-21T17:56:46.227Z,24.54
2023-05-21T17:59:16.361Z,24.24
2023-05-21T18:01:46.028Z,24.17
2023-05-21T18:04:15.678Z,24.08
2023-05-21T18:06:43.536Z,24.15
2023-05-21T18:09:14.295Z,23.98
2023-05-21T18:11:45.132Z,23.98
2023-05-21T18:14:12.755Z,24.00
2023-05-21T18:16:40.937Z,23.77
2023-05-21T18:19:08.777Z,23.65
2023-05-21T18:21:37.535Z,23.54
2023-05-21T18:24:06.477Z,23.57
2023-05-21T18:26:34.133Z,23.41
2023-05-21T18:29:04.377Z,23.28
2023-05-21T18:31:31.693Z,23.23
2023-05-21T18:33:59.305Z,23.11
2023-05-21T18:39:56.948Z,22.75
2023-05-21T18:42:26.366Z,22.79
2023-05-21T18:44:55.931Z,22.66
2023-05-21T18:47:24.756Z,22.60
2023-05-21T18:49:52.425Z,22.56
2023-05-21T18:52:19.776Z,22.51
2023-05-21T18:54:47.412Z,22.34
2023-05-21T18:57:15.107Z,22.23
2023-05-21T18:59:42.398Z,22.14
2023-05-21T19:02:09.927Z,22.05
2023-05-21T19:04:37.683Z,22.00
2023-05-21T19:07:05.807Z,21.93
2023-05-21T19:09:33.118Z,21.82
2023-05-21T19:12:01.172Z,21.74
2023-05-21T19:14:29.247Z,21.69
2023-05-21T19:16:56.589Z,21.58
2023-05-21T19:19:24.633Z,21.50
2023-05-21T19:21:53.308Z,21.42
2023-05-21T19:24:20.877Z,21.34
2023-05-21T19:26:48.500Z,21.31
2023-05-21T19:29:16.130Z,21.25
2023-05-21T19:35:22.426Z,21.06
2023-05-21T19:37:50.031Z,20.96
2023-05-21T19:40:17.801Z,20.90
2023-05-21T19:42:45.167Z,20.79
2023-05-21T19:45:13.466Z,20.71
2023-05-21T19:47:41.162Z,20.71
2023-05-21T19:50:10.170Z,20.76
2023-05-21T19:53:03.989Z,20.63
2023-05-21T19:55:35.327Z,20.55
2023-05-21T20:01:19.764Z,20.27
2023-05-21T20:07:17.908Z,20.13
2023-05-21T20:13:15.260Z,20.07
2023-05-21T20:15:51.873Z,20.09
2023-05-21T20:18:22.360Z,20.07
2023-05-21T20:24:20.023Z,19.98
2023-05-21T20:26:47.442Z,19.80
2023-05-21T20:29:15.349Z,19.76
2023-05-21T20:31:42.612Z,19.71
2023-05-21T20:34:12.381Z,19.60
2023-05-21T20:36:43.597Z,19.49
2023-05-21T20:39:12.152Z,19.44
2023-05-21T20:41:39.663Z,19.38
2023-05-21T20:44:07.062Z,19.31
2023-05-21T20:46:38.440Z,19.31
2023-05-21T20:49:06.136Z,19.31
2023-05-21T20:51:34.164Z,19.37
2023-05-21T20:54:01.628Z,19.38
2023-05-21T20:56:40.790Z,19.35
2023-05-21T20:59:11.161Z,19.25
2023-05-21T21:01:40.737Z,19.18
2023-05-21T21:04:09.032Z,19.13
2023-05-21T21:06:38.570Z,19.03
2023-05-21T21:09:05.966Z,18.92
2023-05-21T21:11:33.709Z,18.81
2023-05-21T21:14:02.718Z,18.65
2023-05-21T21:16:30.130Z,18.61
2023-05-21T21:18:58.025Z,18.61
2023-05-21T21:21:25.434Z,18.51
2023-05-21T21:23:52.593Z,18.40
2023-05-21T21:26:20.171Z,18.25
2023-05-21T21:28:47.527Z,18.31
2023-05-21T21:31:17.589Z,18.37
2023-05-21T21:33:45.046Z,18.32
2023-05-21T21:36:13.085Z,18.24
2023-05-21T21:38:40.336Z,18.21
2023-05-21T21:41:08.191Z,18.30
2023-05-21T21:43:35.702Z,18.29
2023-05-21T21:46:03.253Z,18.25
2023-05-21T21:48:30.896Z,18.17
2023-05-21T21:50:58.404Z,18.11
2023-05-21T21:53:25.702Z,18.04
2023-05-21T21:55:53.474Z,18.02
2023-05-21T21:58:20.830Z,17.91
2023-05-21T22:04:18.440Z,17.98
2023-05-21T22:06:46.814Z,18.04
2023-05-21T22:09:14.142Z,17.99
2023-05-21T22:11:41.543Z,18.24
2023-05-21T22:14:09.062Z,18.62
2023-05-21T22:16:36.691Z,18.83
2023-05-21T22:19:03.974Z,18.94
2023-05-21T22:21:33.185Z,19.08
2023-05-21T22:24:00.625Z,19.13
2023-05-21T22:26:27.887Z,18.92
2023-05-21T22:28:55.731Z,18.78
2023-05-21T22:31:23.124Z,18.95
2023-05-21T22:33:50.514Z,18.95
2023-05-21T22:36:18.296Z,18.59
2023-05-21T22:38:45.719Z,18.47
2023-05-21T22:41:13.138Z,18.53
2023-05-21T22:43:41.058Z,18.51
2023-05-21T22:46:08.414Z,18.51
2023-05-21T22:48:37.290Z,18.55
2023-05-21T22:51:05.658Z,18.45
2023-05-21T22:53:33.526Z,18.37
2023-05-21T22:56:01.185Z,18.40
2023-05-21T22:58:28.692Z,18.39
2023-05-21T23:00:56.028Z,18.45
2023-05-21T23:03:23.404Z,18.51
2023-05-21T23:05:51.116Z,18.49
2023-05-21T23:08:18.482Z,18.48
2023-05-21T23:10:45.811Z,18.61
2023-05-21T23:13:13.386Z,18.56
2023-05-21T23:15:43.810Z,18.47
2023-05-21T23:18:11.808Z,18.42
2023-05-21T23:20:41.050Z,18.46
2023-05-21T23:23:09.825Z,18.55
2023-05-21T23:25:37.463Z,18.55
2023-05-21T23:28:05.115Z,18.51
2023-05-21T23:30:32.620Z,18.62
2023-05-21T23:33:00.644Z,18.57
2023-05-21T23:35:28.291Z,18.51
2023-05-21T23:37:55.769Z,18.48
2023-05-21T23:40:23.096Z,18.53
2023-05-21T23:42:50.722Z,18.76
2023-05-21T23:45:18.309Z,18.53
2023-05-21T23:47:45.708Z,18.34
2023-05-21T23:50:13.283Z,18.43
2023-05-21T23:52:41.656Z,18.32
2023-05-21T23:55:11.604Z,18.22
2023-05-21T23:57:39.037Z,18.11
